Time;durP1;ratioP1;P1;durP2;ratioP2;P2;SDS_P1;SDS_P2;PMS_P1;PMS_P2;Temp;Humidity;BMP_temperature;BMP_pressure;BME280_temperature;BME280_humidity;BME280_pressure;Samples;Min_cycle;Max_cycle;Signal;HPM_P1;HPM_P2
2023/05/29 00:00:55;;;;;;;10.17;5.77;;;;;;;14.08;94.55;94620.00;5063633;28;20189;-81
2023/05/29 00:03:20;;;;;;;11.07;5.90;;;;;;;14.05;94.43;94609.88;5065011;28;20220;-81
2023/05/29 00:05:45;;;;;;;12.87;7.10;;;;;;;14.12;94.17;94624.56;5064626;28;20701;-81
2023/05/29 00:08:11;;;;;;;11.80;7.33;;;;;;;14.11;94.37;94627.47;5061214;28;20217;-81
2023/05/29 00:10:37;;;;;;;15.70;7.80;;;;;;;14.08;93.97;94623.47;5061379;28;20179;-81
2023/05/29 00:13:03;;;;;;;18.57;8.70;;;;;;;14.06;94.40;94628.19;5062791;28;20199;-81
2023/05/29 00:15:30;;;;;;;13.20;8.20;;;;;;;14.05;94.22;94620.47;5064307;28;20253;-81
2023/05/29 00:17:56;;;;;;;12.87;8.27;;;;;;;14.04;94.20;94627.63;5073023;28;20183;-81
2023/05/29 00:20:22;;;;;;;12.47;7.03;;;;;;;14.01;94.25;94632.59;5071940;28;20187;-81
2023/05/29 00:22:47;;;;;;;12.33;7.37;;;;;;;13.85;94.34;94612.97;5073415;28;20166;-81
2023/05/29 00:25:14;;;;;;;12.67;8.37;;;;;;;13.85;94.40;94605.03;5073018;28;20166;-81
2023/05/29 00:27:41;;;;;;;14.02;9.13;;;;;;;13.96;94.33;94628.81;5072465;28;20523;-81
2023/05/29 00:30:07;;;;;;;15.93;8.38;;;;;;;13.81;94.80;94628.53;5071626;28;20501;-81
2023/05/29 00:32:33;;;;;;;16.25;9.52;;;;;;;13.36;96.81;94622.34;5068326;28;20403;-81
2023/05/29 00:34:58;;;;;;;16.27;7.50;;;;;;;13.47;97.14;94617.03;5067707;28;20180;-81
2023/05/29 00:37:24;;;;;;;10.57;5.60;;;;;;;13.52;97.40;94624.25;5062024;28;20405;-81
2023/05/29 00:39:50;;;;;;;13.30;5.03;;;;;;;13.59;97.08;94615.13;5052941;28;20229;-81
2023/05/29 00:42:15;;;;;;;9.50;5.90;;;;;;;13.37;97.43;94621.31;5060652;28;20668;-81
2023/05/29 00:44:41;;;;;;;9.83;4.67;;;;;;;13.34;97.58;94606.69;5060705;28;20254;-82
2023/05/29 00:47:06;;;;;;;5.87;4.30;;;;;;;13.40;97.73;94618.19;5058829;28;20562;-81
2023/05/29 00:49:34;;;;;;;8.67;4.03;;;;;;;13.41;97.74;94627.72;5062893;28;20236;-81
2023/05/29 00:52:00;;;;;;;6.20;4.20;;;;;;;13.31;98.18;94607.19;5060645;28;20182;-81
2023/05/29 00:54:29;;;;;;;9.57;4.80;;;;;;;13.41;98.39;94620.59;5060503;28;20221;-82
2023/05/29 00:56:57;;;;;;;6.82;5.30;;;;;;;13.29;98.68;94608.44;5058586;28;20867;-81
2023/05/29 00:59:23;;;;;;;8.30;5.20;;;;;;;13.16;99.13;94596.28;5066789;28;20413;-81
2023/05/29 01:01:52;;;;;;;7.53;4.97;;;;;;;13.27;99.26;94610.50;5061716;28;20182;-81
2023/05/29 01:04:18;;;;;;;6.27;3.83;;;;;;;13.40;98.36;94611.06;5060353;28;20177;-81
2023/05/29 01:06:44;;;;;;;6.63;3.83;;;;;;;13.34;97.57;94590.84;5060564;28;20178;-81
2023/05/29 01:09:10;;;;;;;8.77;4.13;;;;;;;13.30;98.11;94588.91;5052694;28;20222;-82
2023/05/29 01:11:50;;;;;;;9.17;5.30;;;;;;;13.28;99.07;94609.47;5051128;28;20403;-81
2023/05/29 01:14:33;;;;;;;5.30;4.27;;;;;;;13.42;98.09;94613.47;5041119;28;20182;-82
2023/05/29 01:17:11;;;;;;;7.97;4.43;;;;;;;13.45;97.02;94615.66;5061524;28;20583;-81
2023/05/29 01:19:48;;;;;;;6.20;4.07;;;;;;;13.51;96.79;94615.50;5060386;28;20232;-81
2023/05/29 01:22:46;;;;;;;13.73;5.57;;;;;;;13.54;96.69;94616.88;5051945;28;20159;-81
2023/05/29 01:25:14;;;;;;;7.83;4.90;;;;;;;13.50;96.33;94607.81;5051742;28;20171;-81
2023/05/29 01:27:41;;;;;;;7.60;4.80;;;;;;;13.57;95.90;94625.16;5066556;28;20182;-81
2023/05/29 01:30:08;;;;;;;12.50;5.70;;;;;;;13.55;95.78;94621.13;5055012;28;20638;-81
2023/05/29 01:32:34;;;;;;;7.40;4.80;;;;;;;13.57;95.35;94632.28;5070557;28;20171;-81
2023/05/29 01:35:00;;;;;;;7.73;4.57;;;;;;;13.56;95.51;94626.19;5064168;28;20174;-81
2023/05/29 01:37:27;;;;;;;9.47;4.73;;;;;;;13.54;95.43;94627.47;5067415;28;20177;-81
2023/05/29 01:39:52;;;;;;;8.87;5.77;;;;;;;13.54;95.53;94622.19;5060949;28;20163;-81
2023/05/29 01:42:18;;;;;;;12.67;5.30;;;;;;;13.56;95.64;94620.09;5056118;28;20239;-81
2023/05/29 01:44:45;;;;;;;9.27;5.60;;;;;;;13.51;96.02;94615.50;5060722;28;20166;-81
2023/05/29 01:47:11;;;;;;;10.23;5.33;;;;;;;13.30;96.14;94594.19;5059064;28;20206;-81
2023/05/29 01:49:37;;;;;;;9.80;5.82;;;;;;;13.39;96.91;94621.88;5055440;28;20408;-81
2023/05/29 01:52:03;;;;;;;13.73;5.73;;;;;;;13.22;97.87;94598.00;5070757;28;20170;-81
2023/05/29 01:54:29;;;;;;;11.80;5.50;;;;;;;13.31;98.73;94616.97;5067287;28;20213;-81
2023/05/29 01:56:55;;;;;;;8.43;5.28;;;;;;;13.37;98.77;94610.72;5066836;28;20417;-81
2023/05/29 01:59:21;;;;;;;7.33;4.40;;;;;;;13.37;98.84;94600.94;5067092;28;20194;-81
2023/05/29 02:01:47;;;;;;;8.05;4.90;;;;;;;13.21;99.03;94597.19;5066497;28;20413;-81
2023/05/29 02:04:13;;;;;;;7.28;5.38;;;;;;;13.23;99.78;94609.38;5066056;28;20500;-81
2023/05/29 02:06:38;;;;;;;6.87;4.97;;;;;;;13.28;99.40;94604.19;5067076;28;20261;-81
2023/05/29 02:09:03;;;;;;;9.60;4.10;;;;;;;13.16;99.26;94605.00;5066936;28;20185;-81
2023/05/29 02:11:29;;;;;;;6.13;4.40;;;;;;;13.28;99.37;94617.41;5066816;28;20178;-81
2023/05/29 02:13:54;;;;;;;10.10;5.20;;;;;;;13.42;98.50;94606.34;5063842;28;20189;-81
2023/05/29 02:16:20;;;;;;;9.38;5.10;;;;;;;13.14;99.10;94601.81;5062717;28;20953;-82
2023/05/29 02:18:46;;;;;;;7.90;5.17;;;;;;;13.18;100.00;94610.88;5054491;28;20406;-81
2023/05/29 02:21:12;;;;;;;8.47;3.90;;;;;;;13.11;99.62;94570.53;5063421;28;20242;-81
2023/05/29 02:23:37;;;;;;;12.50;5.47;;;;;;;13.45;98.96;94608.53;5063406;28;20173;-81
2023/05/29 02:26:02;;;;;;;9.10;5.13;;;;;;;13.54;98.03;94606.31;5065909;28;20171;-81
2023/05/29 02:28:28;;;;;;;9.30;4.60;;;;;;;13.44;97.48;94584.94;5066815;28;20220;-81
2023/05/29 02:30:53;;;;;;;7.67;4.20;;;;;;;13.59;97.19;94603.75;5065908;28;20177;-81
2023/05/29 02:33:19;;;;;;;9.27;4.90;;;;;;;13.53;97.31;94602.84;5055297;28;20709;-81
2023/05/29 02:35:45;;;;;;;7.40;4.43;;;;;;;13.40;97.03;94595.22;5055141;28;20512;-81
2023/05/29 02:38:10;;;;;;;7.07;4.37;;;;;;;13.55;96.92;94608.72;5061130;28;20727;-81
2023/05/29 02:40:35;;;;;;;10.93;4.43;;;;;;;13.55;96.47;94611.38;5062000;28;20185;-81
2023/05/29 02:43:01;;;;;;;7.07;4.30;;;;;;;13.54;96.63;94611.59;5064058;28;20225;-81
2023/05/29 02:45:26;;;;;;;10.67;4.43;;;;;;;13.52;96.57;94618.97;5061496;28;20199;-81
2023/05/29 02:47:51;;;;;;;8.93;5.00;;;;;;;13.50;96.22;94615.72;5063312;28;20167;-81
2023/05/29 02:50:17;;;;;;;10.93;5.33;;;;;;;13.50;96.49;94610.44;5063149;28;20622;-81
2023/05/29 02:52:42;;;;;;;6.03;5.10;;;;;;;13.47;96.38;94603.81;5063979;28;20224;-81
2023/05/29 02:55:08;;;;;;;9.27;5.80;;;;;;;13.30;96.46;94578.34;5067527;28;21012;-81
2023/05/29 02:57:33;;;;;;;7.60;5.43;;;;;;;13.48;96.34;94609.91;5074759;28;20151;-81
2023/05/29 03:00:00;;;;;;;8.47;5.77;;;;;;;13.37;97.15;94610.72;5065290;28;20491;-81
2023/05/29 03:02:26;;;;;;;8.10;5.70;;;;;;;13.33;98.05;94606.94;5065620;28;20190;-81
2023/05/29 03:04:53;;;;;;;11.20;5.43;;;;;;;13.15;98.15;94587.53;5066860;28;20171;-81
2023/05/29 03:07:19;;;;;;;10.07;5.30;;;;;;;13.28;98.48;94604.19;5061827;28;20232;-81
2023/05/29 03:09:44;;;;;;;10.33;5.67;;;;;;;13.25;98.44;94592.25;5067272;28;20782;-81
2023/05/29 03:12:10;;;;;;;12.37;6.43;;;;;;;13.34;98.40;94598.78;5060392;28;20164;-81
2023/05/29 03:14:36;;;;;;;9.50;5.93;;;;;;;13.08;97.98;94560.41;5065903;28;20629;-81
2023/05/29 03:17:06;;;;;;;10.27;5.30;;;;;;;13.51;97.85;94617.34;5067372;28;20732;-81
2023/05/29 03:19:32;;;;;;;8.27;5.80;;;;;;;13.56;97.99;94615.63;5065031;28;20189;-81
2023/05/29 03:21:57;;;;;;;9.53;5.27;;;;;;;13.60;98.12;94611.44;5074287;28;20533;-81
2023/05/29 03:24:23;;;;;;;8.53;5.30;;;;;;;13.66;98.05;94615.03;5073957;28;20169;-81
2023/05/29 03:26:49;;;;;;;9.20;5.97;;;;;;;13.49;97.69;94579.78;5065252;28;20178;-81
2023/05/29 03:29:16;;;;;;;10.90;5.40;;;;;;;13.76;97.64;94612.53;5062603;28;20174;-81
2023/05/29 03:31:41;;;;;;;12.77;6.47;;;;;;;13.74;97.95;94617.28;5063201;28;20311;-81
2023/05/29 03:34:07;;;;;;;12.50;5.23;;;;;;;13.72;98.13;94613.25;5057430;28;20281;-80
2023/05/29 03:36:33;;;;;;;9.90;5.43;;;;;;;13.44;97.65;94569.09;5064048;28;20300;-81
2023/05/29 03:38:58;;;;;;;13.17;6.73;;;;;;;13.84;97.52;94624.59;5070711;28;20665;-81
2023/05/29 03:41:25;;;;;;;16.37;6.20;;;;;;;13.83;97.86;94623.81;5073503;28;20157;-81
2023/05/29 03:43:50;;;;;;;12.97;5.27;;;;;;;13.95;97.56;94636.97;5073843;28;20151;-81
2023/05/29 03:46:16;;;;;;;10.80;5.80;;;;;;;13.66;98.06;94575.34;5071379;28;20676;-81
2023/05/29 03:48:41;;;;;;;13.70;6.20;;;;;;;14.19;97.70;94640.31;5062517;28;20170;-81
2023/05/29 03:51:07;;;;;;;21.33;6.97;;;;;;;14.24;97.62;94643.06;5064046;28;20217;-81
2023/05/29 03:53:32;;;;;;;16.20;5.17;;;;;;;14.28;97.23;94644.16;5061860;28;20194;-81
2023/05/29 03:55:58;;;;;;;11.77;5.43;;;;;;;14.17;97.58;94642.41;5066590;28;20174;-81
2023/05/29 03:58:23;;;;;;;9.53;5.97;;;;;;;14.11;98.01;94622.16;5064150;28;20185;-81
2023/05/29 04:00:48;;;;;;;10.77;6.30;;;;;;;14.33;98.03;94644.28;5071706;28;20174;-81
2023/05/29 04:03:14;;;;;;;13.87;6.30;;;;;;;14.39;97.68;94646.00;5061333;28;20171;-81
2023/05/29 04:05:40;;;;;;;11.83;5.40;;;;;;;14.32;97.72;94624.13;5062254;28;20574;-81
2023/05/29 04:08:05;;;;;;;11.18;6.13;;;;;;;14.50;97.38;94642.47;5061892;28;20179;-82
2023/05/29 04:10:33;;;;;;;16.70;5.93;;;;;;;14.55;97.72;94644.41;5061581;28;20170;-82
2023/05/29 04:13:00;;;;;;;15.93;5.50;;;;;;;14.62;97.50;94643.19;5062037;28;20194;-82
2023/05/29 04:15:25;;;;;;;14.93;6.18;;;;;;;14.52;97.01;94640.41;5064098;28;20222;-82
2023/05/29 04:17:50;;;;;;;9.77;5.35;;;;;;;14.65;97.30;94658.63;5064845;28;20696;-82
2023/05/29 04:20:16;;;;;;;19.20;6.55;;;;;;;14.76;97.57;94654.28;5073075;28;20178;-83
2023/05/29 04:22:41;;;;;;;10.60;5.20;;;;;;;14.90;97.48;94660.84;5072751;28;20645;-82
2023/05/29 04:25:07;;;;;;;14.50;5.90;;;;;;;14.91;97.61;94659.81;5072588;28;20174;-83
2023/05/29 04:27:37;;;;;;;14.45;7.40;;;;;;;14.85;97.87;94641.44;5072810;28;20983;-83
2023/05/29 04:30:07;;;;;;;16.60;6.93;;;;;;;14.96;97.62;94649.28;5072783;28;20672;-82
2023/05/29 04:32:36;;;;;;;15.80;9.38;;;;;;;14.94;97.36;94642.63;5072751;28;20162;-82
2023/05/29 04:35:02;;;;;;;21.17;10.82;;;;;;;14.89;96.75;94624.00;5071171;28;20174;-83
2023/05/29 04:37:29;;;;;;;23.85;9.40;;;;;;;14.97;96.14;94623.56;5072389;28;20151;-83
2023/05/29 04:39:57;;;;;;;21.88;9.50;;;;;;;15.33;95.54;94670.75;5062237;28;20177;-81
2023/05/29 04:42:24;;;;;;;15.95;8.30;;;;;;;15.41;95.41;94675.66;5060893;28;20185;-81
2023/05/29 04:44:52;;;;;;;19.35;9.23;;;;;;;15.50;95.40;94668.06;5069338;28;20245;-81
2023/05/29 04:47:18;;;;;;;21.17;9.10;;;;;;;15.57;95.32;94676.66;5060779;28;20175;-81
2023/05/29 04:49:49;;;;;;;17.48;8.65;;;;;;;15.65;94.60;94676.28;5061213;28;20578;-81
2023/05/29 04:52:15;;;;;;;12.23;7.80;;;;;;;15.68;93.91;94670.44;5071760;28;20162;-81
2023/05/29 04:54:40;;;;;;;18.05;8.80;;;;;;;15.57;93.91;94649.38;5063749;28;20190;-81
2023/05/29 04:57:06;;;;;;;20.35;8.48;;;;;;;15.74;93.57;94681.94;5062632;28;20544;-81
2023/05/29 04:59:31;;;;;;;12.55;6.60;;;;;;;15.81;93.19;94685.22;5060683;28;20159;-81
2023/05/29 05:01:57;;;;;;;26.90;7.90;;;;;;;15.82;93.12;94689.47;5068914;28;20581;-81
2023/05/29 05:04:22;;;;;;;12.15;6.57;;;;;;;15.85;93.10;94691.63;5063813;28;20175;-81
2023/05/29 05:06:47;;;;;;;16.17;6.80;;;;;;;15.82;92.25;94686.81;5063294;28;20236;-81
2023/05/29 05:09:13;;;;;;;9.52;6.28;;;;;;;15.93;91.62;94707.13;5062647;28;20174;-81
2023/05/29 05:11:38;;;;;;;12.52;6.82;;;;;;;15.94;91.75;94698.09;5065119;28;20178;-81
2023/05/29 05:14:03;;;;;;;11.45;6.55;;;;;;;16.04;91.75;94710.69;5063614;28;20640;-81
2023/05/29 05:16:29;;;;;;;17.58;6.68;;;;;;;16.08;91.78;94707.31;5061152;28;20222;-81
2023/05/29 05:18:54;;;;;;;13.90;6.97;;;;;;;16.18;91.89;94714.56;5060443;28;20190;-81
2023/05/29 05:21:20;;;;;;;14.45;6.97;;;;;;;16.09;92.25;94685.00;5052029;28;20160;-81
2023/05/29 05:23:46;;;;;;;15.85;6.60;;;;;;;16.38;92.17;94719.31;5051953;28;20167;-81
2023/05/29 05:26:11;;;;;;;13.30;7.15;;;;;;;16.47;91.69;94718.63;5052242;28;20162;-81
2023/05/29 05:28:36;;;;;;;10.77;6.45;;;;;;;16.53;91.02;94711.47;5051929;28;20171;-81
2023/05/29 05:31:02;;;;;;;13.13;6.50;;;;;;;16.62;90.45;94712.66;5052160;28;20215;-81
2023/05/29 05:33:27;;;;;;;25.48;7.18;;;;;;;16.67;89.80;94710.06;5051865;28;20659;-82
2023/05/29 05:35:52;;;;;;;11.18;6.38;;;;;;;16.74;89.74;94710.66;5051845;28;20174;-81
2023/05/29 05:38:18;;;;;;;12.88;5.78;;;;;;;16.79;88.81;94718.69;5051912;28;20265;-81
2023/05/29 05:40:44;;;;;;;8.82;5.47;;;;;;;16.81;88.88;94716.56;5061900;28;20166;-81
2023/05/29 05:43:10;;;;;;;10.68;5.68;;;;;;;16.76;88.98;94702.44;5072813;28;20224;-81
2023/05/29 05:45:36;;;;;;;12.90;5.35;;;;;;;16.97;88.31;94730.78;5072380;28;20162;-81
2023/05/29 05:48:01;;;;;;;10.15;5.78;;;;;;;16.82;87.32;94680.97;5072014;28;20162;-81
2023/05/29 05:50:27;;;;;;;13.60;5.13;;;;;;;17.20;86.77;94725.16;5072103;28;20181;-81
2023/05/29 05:52:52;;;;;;;12.93;5.22;;;;;;;17.36;86.32;94720.75;5071761;28;20589;-81
2023/05/29 05:55:18;;;;;;;8.57;5.13;;;;;;;17.49;85.70;94725.59;5071854;28;20192;-81
2023/05/29 05:57:43;;;;;;;12.00;5.45;;;;;;;17.61;84.84;94725.41;5071824;28;20227;-81
2023/05/29 06:00:12;;;;;;;11.88;7.10;;;;;;;17.78;84.62;94728.75;5072060;28;20176;-81
2023/05/29 06:02:41;;;;;;;9.60;5.57;;;;;;;17.83;84.69;94706.66;5072683;28;20556;-81
2023/05/29 06:05:07;;;;;;;10.13;5.53;;;;;;;18.13;84.80;94720.09;5071577;28;20155;-81
2023/05/29 06:07:33;;;;;;;13.70;5.28;;;;;;;18.32;84.69;94686.59;5071877;28;20179;-82
2023/05/29 06:09:58;;;;;;;8.70;5.60;;;;;;;19.14;82.23;94690.97;5071496;28;20578;-81
2023/05/29 06:12:24;;;;;;;8.13;5.50;;;;;;;20.03;78.13;94724.19;5060194;28;20179;-81
2023/05/29 06:14:50;;;;;;;9.25;4.70;;;;;;;20.50;75.34;94731.75;5051284;28;20194;-81
2023/05/29 06:17:15;;;;;;;7.90;4.40;;;;;;;20.69;73.55;94738.09;5051722;28;20242;-81
2023/05/29 06:19:41;;;;;;;9.60;4.75;;;;;;;20.68;72.67;94736.47;5054929;28;20592;-82
2023/05/29 06:22:07;;;;;;;8.07;4.22;;;;;;;20.69;74.23;94742.63;5054945;28;20179;-83
2023/05/29 06:24:32;;;;;;;9.43;4.68;;;;;;;20.76;72.38;94737.00;5053856;28;20190;-80
2023/05/29 06:26:57;;;;;;;5.82;3.72;;;;;;;20.66;71.21;94738.66;5056207;28;20563;-83
2023/05/29 06:29:23;;;;;;;4.70;2.88;;;;;;;20.58;72.94;94733.84;5071564;28;20175;-82
2023/05/29 06:31:48;;;;;;;3.40;2.47;;;;;;;20.57;71.02;94707.41;5059636;28;20206;-87
2023/05/29 06:34:14;;;;;;;6.88;3.13;;;;;;;20.84;69.59;94755.94;5054798;28;20214;-83
2023/05/29 06:36:40;;;;;;;4.43;3.08;;;;;;;20.59;70.94;94745.34;5054672;28;20615;-83
2023/05/29 06:39:05;;;;;;;5.15;3.17;;;;;;;20.80;73.78;94743.38;5054684;28;20167;-83
2023/05/29 06:41:31;;;;;;;8.70;3.55;;;;;;;21.28;73.39;94739.03;5056708;28;20178;-83
2023/05/29 06:43:56;;;;;;;8.00;3.78;;;;;;;21.58;69.54;94744.16;5069073;28;20171;-83
2023/05/29 06:46:21;;;;;;;6.40;3.45;;;;;;;21.75;68.12;94743.72;5062707;28;20175;-83
2023/05/29 06:48:47;;;;;;;6.90;3.47;;;;;;;22.02;69.15;94743.22;5062768;28;20171;-83
2023/05/29 06:51:45;;;;;;;5.00;2.95;;;;;;;22.39;67.71;94753.25;5054784;28;20151;-83
2023/05/29 06:54:10;;;;;;;3.65;2.67;;;;;;;23.05;69.23;94739.75;5055035;28;20233;-83
2023/05/29 06:56:36;;;;;;;3.97;2.00;;;;;;;23.31;64.61;94746.34;5054933;28;20163;-83
2023/05/29 06:59:01;;;;;;;4.25;2.45;;;;;;;23.43;62.76;94740.50;5054765;28;20162;-83
2023/05/29 07:01:27;;;;;;;4.32;2.47;;;;;;;23.51;63.24;94734.50;5054669;28;20182;-84
2023/05/29 07:03:53;;;;;;;2.75;1.80;;;;;;;23.67;61.34;94745.78;5054660;28;20616;-83
2023/05/29 07:06:19;;;;;;;2.03;1.83;;;;;;;23.58;61.94;94739.47;5054435;28;20265;-83
2023/05/29 07:08:45;;;;;;;4.15;2.22;;;;;;;23.89;62.77;94742.41;5054176;28;20171;-83
2023/05/29 07:11:10;;;;;;;1.80;1.70;;;;;;;23.99;62.30;94726.09;5054092;28;20162;-84
2023/05/29 07:13:35;;;;;;;6.32;2.05;;;;;;;24.27;63.42;94743.09;5054394;28;20187;-84
2023/05/29 07:16:01;;;;;;;2.03;1.75;;;;;;;24.77;61.64;94747.41;5053965;28;20250;-85
2023/05/29 07:18:26;;;;;;;2.15;1.70;;;;;;;25.26;58.04;94751.19;5046481;28;20187;-82
2023/05/29 07:20:52;;;;;;;1.70;1.60;;;;;;;25.11;57.20;94721.91;5034344;28;20168;-83
2023/05/29 07:23:17;;;;;;;2.05;1.83;;;;;;;25.60;58.17;94734.47;5034168;28;20180;-83
2023/05/29 07:25:43;;;;;;;3.60;1.38;;;;;;;25.73;54.00;94741.72;5057434;28;20642;-83
2023/05/29 07:28:08;;;;;;;6.53;1.65;;;;;;;25.78;55.00;94735.38;5063742;28;20243;-84
2023/05/29 07:30:33;;;;;;;4.65;1.67;;;;;;;25.91;54.36;94731.81;5061485;28;20172;-83
2023/05/29 07:32:59;;;;;;;2.92;1.88;;;;;;;25.59;54.73;94695.16;5068610;28;20202;-84
2023/05/29 07:35:24;;;;;;;2.08;1.50;;;;;;;25.40;55.42;94732.28;5074138;28;20162;-82
2023/05/29 07:37:52;;;;;;;4.82;1.95;;;;;;;25.35;58.07;94727.78;5073657;28;20602;-84
2023/05/29 07:40:17;;;;;;;2.33;1.58;;;;;;;25.00;54.70;94720.53;5063987;28;20214;-85
2023/05/29 07:42:43;;;;;;;2.72;1.83;;;;;;;24.78;56.97;94732.06;5062011;28;20221;-85
2023/05/29 07:45:08;;;;;;;6.13;2.00;;;;;;;24.51;58.36;94727.50;5057782;28;20183;-83
2023/05/29 07:47:34;;;;;;;2.75;1.83;;;;;;;24.17;58.40;94727.91;5051819;28;20180;-84
2023/05/29 07:49:59;;;;;;;2.05;1.70;;;;;;;23.49;59.59;94730.50;5054483;28;20167;-83
2023/05/29 07:52:25;;;;;;;2.15;1.92;;;;;;;22.92;61.56;94700.19;5060462;28;20198;-87
2023/05/29 07:54:50;;;;;;;3.15;1.73;;;;;;;22.72;64.05;94720.06;5053697;28;20183;-86
2023/05/29 07:57:16;;;;;;;2.38;1.90;;;;;;;22.28;62.34;94684.72;5052179;28;20624;-86
2023/05/29 07:59:41;;;;;;;4.95;2.55;;;;;;;22.45;65.48;94717.22;5052021;28;20637;-82
2023/05/29 08:02:08;;;;;;;8.55;2.83;;;;;;;22.61;67.72;94717.81;5053312;28;20160;-82
2023/05/29 08:04:33;;;;;;;5.50;1.92;;;;;;;22.78;64.88;94718.13;5053566;28;20151;-84
2023/05/29 08:07:03;;;;;;;2.97;2.40;;;;;;;22.70;61.99;94714.19;5053498;28;20259;-86
2023/05/29 08:09:29;;;;;;;3.60;2.03;;;;;;;22.14;62.26;94690.75;5059727;28;20269;-85
2023/05/29 08:11:54;;;;;;;4.82;2.30;;;;;;;21.83;63.95;94719.78;5060565;28;20826;-87
2023/05/29 08:14:20;;;;;;;3.83;2.33;;;;;;;21.26;65.63;94680.44;5061165;28;20278;-85
2023/05/29 08:16:45;;;;;;;3.00;1.70;;;;;;;21.13;67.59;94698.97;5055206;28;20301;-88
2023/05/29 08:19:11;;;;;;;2.88;2.13;;;;;;;20.88;68.04;94682.03;5051733;28;20206;-88
2023/05/29 08:21:37;;;;;;;4.18;1.80;;;;;;;20.77;68.75;94699.25;5065539;28;20182;-86
2023/05/29 08:24:06;;;;;;;3.35;2.13;;;;;;;20.80;71.05;94724.66;5065372;28;20258;-82
2023/05/29 08:26:31;;;;;;;3.53;2.22;;;;;;;20.46;71.59;94689.81;5058606;28;20194;-85
2023/05/29 08:28:57;;;;;;;8.00;3.35;;;;;;;20.38;72.16;94682.38;5052586;28;20650;-83
2023/05/29 08:31:26;;;;;;;2.08;1.85;;;;;;;20.66;72.27;94711.09;5052954;28;20636;-85
2023/05/29 08:33:52;;;;;;;2.35;2.00;;;;;;;20.60;70.06;94688.91;5052484;28;20210;-83
2023/05/29 08:36:20;;;;;;;2.42;2.10;;;;;;;20.81;67.24;94726.25;5052579;28;20268;-87
2023/05/29 08:38:46;;;;;;;5.57;2.40;;;;;;;20.93;69.11;94727.50;5051252;28;20248;-84
2023/05/29 08:41:27;;;;;;;3.75;1.92;;;;;;;20.59;66.80;94652.53;5051834;28;20181;-85
2023/05/29 08:43:53;;;;;;;2.40;2.03;;;;;;;21.09;66.39;94720.19;5052505;28;20178;-87
2023/05/29 08:46:21;;;;;;;3.05;2.00;;;;;;;20.72;67.57;94664.50;5052750;28;20797;-87
2023/05/29 08:48:51;;;;;;;3.83;2.00;;;;;;;20.99;69.38;94664.84;5052568;28;20162;-89
2023/05/29 08:51:21;;;;;;;4.65;2.38;;;;;;;21.46;67.95;94701.66;5060724;28;20183;-84
2023/05/29 08:53:47;;;;;;;4.32;2.20;;;;;;;21.45;65.41;94664.44;5055426;28;20713;-87
2023/05/29 08:56:13;;;;;;;3.60;2.45;;;;;;;21.74;67.82;94677.81;5060239;28;20249;-83
2023/05/29 08:58:38;;;;;;;2.63;2.10;;;;;;;22.13;60.60;94712.53;5062495;28;20213;-88
2023/05/29 09:01:04;;;;;;;2.47;2.28;;;;;;;21.52;62.05;94650.72;5072890;28;20193;-85
2023/05/29 09:03:29;;;;;;;5.97;2.33;;;;;;;21.27;61.41;94663.28;5072273;28;20179;-84
2023/05/29 09:06:03;;;;;;;4.22;2.17;;;;;;;21.49;61.84;94707.53;5072184;28;20174;-87
2023/05/29 09:08:28;;;;;;;3.53;2.20;;;;;;;21.35;61.40;94672.59;5072601;28;20217;-89
2023/05/29 09:10:55;;;;;;;3.92;2.60;;;;;;;21.16;63.33;94629.63;5072220;28;20170;-89
2023/05/29 09:13:20;;;;;;;2.92;2.20;;;;;;;21.33;61.00;94661.34;5072128;28;20704;-87
2023/05/29 09:15:46;;;;;;;3.00;2.55;;;;;;;21.58;62.32;94695.13;5071960;28;20237;-88
2023/05/29 09:18:12;;;;;;;3.97;2.10;;;;;;;21.35;60.50;94651.16;5072717;28;20550;-88
2023/05/29 09:20:37;;;;;;;3.60;1.95;;;;;;;21.49;59.38;94689.59;5066739;28;20175;-84
2023/05/29 09:23:07;;;;;;;2.63;2.10;;;;;;;21.40;61.87;94689.41;5070770;28;20660;-83
2023/05/29 09:25:42;;;;;;;2.53;2.30;;;;;;;21.50;61.59;94682.34;5063486;28;20645;-83
2023/05/29 09:28:08;;;;;;;7.75;2.58;;;;;;;21.58;61.75;94662.97;5059291;28;20178;-83
2023/05/29 09:30:36;;;;;;;4.88;2.63;;;;;;;21.76;61.57;94683.69;5066668;28;20199;-83
2023/05/29 09:33:03;;;;;;;4.82;2.22;;;;;;;21.52;59.74;94645.38;5059631;28;20186;-86
2023/05/29 09:35:46;;;;;;;4.65;2.40;;;;;;;21.64;60.24;94668.00;5048773;28;20190;-87
2023/05/29 09:38:15;;;;;;;6.13;2.53;;;;;;;21.53;59.82;94666.50;5059594;28;20185;-86
2023/05/29 09:40:41;;;;;;;4.18;2.83;;;;;;;21.37;65.49;94630.22;5061553;28;20181;-86
2023/05/29 09:43:17;;;;;;;4.85;2.47;;;;;;;21.57;64.14;94661.38;5068976;28;20177;-86
2023/05/29 09:45:45;;;;;;;6.72;2.88;;;;;;;21.33;64.64;94626.53;5050465;28;20304;-87
2023/05/29 09:48:16;;;;;;;5.55;2.70;;;;;;;21.59;64.37;94657.34;5057492;28;20201;-87
2023/05/29 09:50:49;;;;;;;5.07;2.45;;;;;;;21.51;62.24;94633.06;5066964;28;20179;-85
2023/05/29 09:53:24;;;;;;;2.55;1.95;;;;;;;21.73;62.99;94652.88;5063191;28;20194;-84
2023/05/29 09:55:50;;;;;;;3.70;2.55;;;;;;;21.78;62.58;94652.03;5063601;28;20230;-85
2023/05/29 09:58:19;;;;;;;4.85;2.50;;;;;;;21.74;60.18;94649.13;5063855;28;20179;-87
2023/05/29 10:00:45;;;;;;;4.93;2.00;;;;;;;21.60;59.11;94609.91;5055688;28;20163;-84
2023/05/29 10:03:12;;;;;;;2.92;2.33;;;;;;;21.73;60.70;94626.09;5055760;28;20213;-85
2023/05/29 10:05:41;;;;;;;5.18;2.15;;;;;;;21.82;59.94;94653.06;5055431;28;20167;-83
2023/05/29 10:08:15;;;;;;;4.45;2.70;;;;;;;21.78;58.56;94652.03;5055428;28;20243;-86
2023/05/29 10:10:43;;;;;;;4.53;2.53;;;;;;;21.62;63.03;94626.50;5058069;28;20661;-84
2023/05/29 10:13:13;;;;;;;3.60;2.58;;;;;;;21.58;62.25;94601.34;5059661;28;20578;-84
2023/05/29 10:15:41;;;;;;;4.38;2.75;;;;;;;21.92;60.16;94647.56;5048747;28;20598;-83
2023/05/29 10:18:31;;;;;;;4.13;2.40;;;;;;;21.83;59.32;94611.75;5055510;28;20170;-84
2023/05/29 10:20:58;;;;;;;4.85;2.63;;;;;;;21.92;58.87;94631.50;5066330;28;20190;-84
2023/05/29 10:23:25;;;;;;;3.25;2.60;;;;;;;21.94;58.78;94640.06;5066570;28;20265;-83
2023/05/29 10:26:05;;;;;;;5.68;3.15;;;;;;;21.98;59.02;94634.94;5064134;28;20182;-82
2023/05/29 10:28:31;;;;;;;2.58;2.38;;;;;;;21.93;60.77;94618.88;5061345;28;20548;-83
2023/05/29 10:31:16;;;;;;;5.13;2.60;;;;;;;21.79;58.93;94592.78;5065010;28;20528;-82
2023/05/29 10:34:02;;;;;;;4.82;2.05;;;;;;;22.03;58.36;94624.16;5062830;28;20202;-83
2023/05/29 10:36:35;;;;;;;5.22;2.33;;;;;;;21.97;57.68;94615.38;5055263;28;20158;-86
2023/05/29 10:39:01;;;;;;;3.65;2.03;;;;;;;21.98;55.82;94622.31;5063233;28;20699;-85
2023/05/29 10:41:27;;;;;;;2.25;2.05;;;;;;;22.05;55.12;94636.19;5066403;28;20209;-86
2023/05/29 10:44:00;;;;;;;3.17;2.03;;;;;;;21.94;55.15;94637.38;5065024;28;20258;-85
2023/05/29 10:46:44;;;;;;;5.30;2.22;;;;;;;21.88;55.49;94630.47;5054673;28;20190;-85
2023/05/29 10:49:16;;;;;;;2.15;1.95;;;;;;;21.79;55.38;94629.53;5063189;28;20650;-84
2023/05/29 10:51:42;;;;;;;4.75;2.35;;;;;;;21.70;56.94;94610.59;5055658;28;20167;-84
2023/05/29 10:54:07;;;;;;;3.60;2.05;;;;;;;21.79;55.65;94621.47;5062080;28;20210;-85
2023/05/29 10:56:33;;;;;;;4.13;2.10;;;;;;;21.78;56.48;94612.63;5055798;28;20193;-86
2023/05/29 10:59:01;;;;;;;4.50;2.47;;;;;;;21.48;55.99;94572.78;5071018;28;20188;-86
2023/05/29 11:01:31;;;;;;;5.40;2.45;;;;;;;21.71;56.29;94614.03;5069854;28;20253;-86
2023/05/29 11:04:26;;;;;;;5.80;2.40;;;;;;;21.37;55.21;94577.47;5049698;28;20333;-85
2023/05/29 11:06:53;;;;;;;3.85;2.42;;;;;;;21.41;56.36;94594.56;5042559;28;20191;-86
2023/05/29 11:09:36;;;;;;;2.85;2.45;;;;;;;21.51;57.13;94595.53;5060697;28;20183;-85
2023/05/29 11:12:13;;;;;;;5.28;3.00;;;;;;;21.60;58.20;94599.19;5055795;28;20182;-85
2023/05/29 11:14:54;;;;;;;3.25;2.25;;;;;;;21.73;57.80;94601.16;5068535;28;20209;-86
2023/05/29 11:17:38;;;;;;;4.20;3.15;;;;;;;21.84;56.84;94597.28;5062583;28;20304;-86
2023/05/29 11:20:13;;;;;;;9.23;2.47;;;;;;;21.77;56.87;94573.53;5049316;28;20183;-86
2023/05/29 11:23:02;;;;;;;5.75;2.50;;;;;;;21.98;59.18;94589.34;5054024;28;20171;-85
2023/05/29 11:25:28;;;;;;;5.25;2.40;;;;;;;21.87;55.75;94577.97;5054029;28;20164;-86
2023/05/29 11:27:54;;;;;;;4.47;2.72;;;;;;;21.95;55.29;94593.41;5063064;28;20976;-85
2023/05/29 11:30:20;;;;;;;3.20;2.22;;;;;;;21.52;55.31;94555.09;5062709;28;20185;-87
2023/05/29 11:32:47;;;;;;;3.58;2.63;;;;;;;21.71;55.91;94592.59;5064003;28;20656;-84